sensor_id;sensor_type;location;lat;lon;timestamp;temperature;humidity
77056;SHT30;67471;44.918;8.614;2023-02-14T00:02:54;4.52;68.08
77056;SHT30;67471;44.918;8.614;2023-02-14T00:06:08;4.42;68.12
77056;SHT30;67471;44.918;8.614;2023-02-14T00:09:17;4.35;68.16
77056;SHT30;67471;44.918;8.614;2023-02-14T00:12:21;4.32;68.15
77056;SHT30;67471;44.918;8.614;2023-02-14T00:15:25;4.14;68.59
77056;SHT30;67471;44.918;8.614;2023-02-14T00:18:28;4.14;68.24
77056;SHT30;67471;44.918;8.614;2023-02-14T00:21:51;4.12;68.54
77056;SHT30;67471;44.918;8.614;2023-02-14T00:24:54;4.12;68.29
77056;SHT30;67471;44.918;8.614;2023-02-14T00:27:58;4.10;68.40
77056;SHT30;67471;44.918;8.614;2023-02-14T00:31:02;4.12;68.41
77056;SHT30;67471;44.918;8.614;2023-02-14T00:34:06;4.12;68.21
77056;SHT30;67471;44.918;8.614;2023-02-14T00:37:10;3.91;68.79
77056;SHT30;67471;44.918;8.614;2023-02-14T00:40:14;3.93;68.69
77056;SHT30;67471;44.918;8.614;2023-02-14T00:43:18;3.93;68.72
77056;SHT30;67471;44.918;8.614;2023-02-14T00:46:23;3.90;68.77
77056;SHT30;67471;44.918;8.614;2023-02-14T00:49:27;3.87;68.79
77056;SHT30;67471;44.918;8.614;2023-02-14T00:52:30;3.84;68.86
77056;SHT30;67471;44.918;8.614;2023-02-14T00:55:34;3.76;69.11
77056;SHT30;67471;44.918;8.614;2023-02-14T00:58:39;3.87;68.83
77056;SHT30;67471;44.918;8.614;2023-02-14T01:01:43;3.79;69.11
77056;SHT30;67471;44.918;8.614;2023-02-14T01:04:46;3.84;68.72
77056;SHT30;67471;44.918;8.614;2023-02-14T01:07:50;3.73;69.30
77056;SHT30;67471;44.918;8.614;2023-02-14T01:10:54;3.90;68.43
77056;SHT30;67471;44.918;8.614;2023-02-14T01:13:58;3.87;68.56
77056;SHT30;67471;44.918;8.614;2023-02-14T01:17:02;3.88;68.50
77056;SHT30;67471;44.918;8.614;2023-02-14T01:20:06;3.83;68.58
77056;SHT30;67471;44.918;8.614;2023-02-14T01:23:10;3.88;68.52
77056;SHT30;67471;44.918;8.614;2023-02-14T01:26:15;3.91;68.58
77056;SHT30;67471;44.918;8.614;2023-02-14T01:29:19;3.94;68.55
77056;SHT30;67471;44.918;8.614;2023-02-14T01:32:23;3.88;68.67
77056;SHT30;67471;44.918;8.614;2023-02-14T01:35:27;3.87;68.67
77056;SHT30;67471;44.918;8.614;2023-02-14T01:38:31;3.93;68.70
77056;SHT30;67471;44.918;8.614;2023-02-14T01:41:37;3.98;68.19
77056;SHT30;67471;44.918;8.614;2023-02-14T01:47:50;3.91;67.89
77056;SHT30;67471;44.918;8.614;2023-02-14T01:50:56;3.91;67.99
77056;SHT30;67471;44.918;8.614;2023-02-14T01:54:02;3.79;68.33
77056;SHT30;67471;44.918;8.614;2023-02-14T01:57:11;3.80;68.22
77056;SHT30;67471;44.918;8.614;2023-02-14T02:00:16;3.70;68.57
77056;SHT30;67471;44.918;8.614;2023-02-14T02:03:45;3.55;68.63
77056;SHT30;67471;44.918;8.614;2023-02-14T02:06:56;3.49;69.09
77056;SHT30;67471;44.918;8.614;2023-02-14T02:10:06;3.48;69.22
77056;SHT30;67471;44.918;8.614;2023-02-14T02:13:19;3.46;69.05
77056;SHT30;67471;44.918;8.614;2023-02-14T02:26:46;3.20;69.16
77056;SHT30;67471;44.918;8.614;2023-02-14T02:40:16;2.76;70.38
77056;SHT30;67471;44.918;8.614;2023-02-14T02:50:49;2.84;70.05
77056;SHT30;67471;44.918;8.614;2023-02-14T02:54:32;2.76;70.19
77056;SHT30;67471;44.918;8.614;2023-02-14T02:57:38;2.74;70.51
77056;SHT30;67471;44.918;8.614;2023-02-14T03:00:45;2.64;71.00
77056;SHT30;67471;44.918;8.614;2023-02-14T03:03:53;2.65;71.02
77056;SHT30;67471;44.918;8.614;2023-02-14T03:07:31;2.64;71.01
77056;SHT30;67471;44.918;8.614;2023-02-14T03:10:41;2.60;71.27
77056;SHT30;67471;44.918;8.614;2023-02-14T03:14:07;2.65;70.94
77056;SHT30;67471;44.918;8.614;2023-02-14T03:24:45;2.80;70.26
77056;SHT30;67471;44.918;8.614;2023-02-14T03:28:03;2.85;69.83
77056;SHT30;67471;44.918;8.614;2023-02-14T03:34:26;2.83;70.22
77056;SHT30;67471;44.918;8.614;2023-02-14T03:37:56;2.64;71.40
77056;SHT30;67471;44.918;8.614;2023-02-14T03:41:03;2.85;70.98
77056;SHT30;67471;44.918;8.614;2023-02-14T03:44:09;2.81;70.97
77056;SHT30;67471;44.918;8.614;2023-02-14T03:47:18;2.84;70.91
77056;SHT30;67471;44.918;8.614;2023-02-14T03:50:24;2.68;71.51
77056;SHT30;67471;44.918;8.614;2023-02-14T03:53:31;2.74;70.83
77056;SHT30;67471;44.918;8.614;2023-02-14T03:56:44;2.50;71.13
77056;SHT30;67471;44.918;8.614;2023-02-14T03:59:49;2.50;70.96
77056;SHT30;67471;44.918;8.614;2023-02-14T04:02:56;2.32;71.77
77056;SHT30;67471;44.918;8.614;2023-02-14T04:06:02;2.36;71.41
77056;SHT30;67471;44.918;8.614;2023-02-14T04:09:05;2.34;71.25
77056;SHT30;67471;44.918;8.614;2023-02-14T04:12:10;2.22;71.22
77056;SHT30;67471;44.918;8.614;2023-02-14T04:15:14;2.23;71.00
77056;SHT30;67471;44.918;8.614;2023-02-14T04:18:18;2.12;71.34
77056;SHT30;67471;44.918;8.614;2023-02-14T04:21:40;2.23;70.76
77056;SHT30;67471;44.918;8.614;2023-02-14T04:24:44;2.15;70.74
77056;SHT30;67471;44.918;8.614;2023-02-14T04:27:53;1.99;71.51
77056;SHT30;67471;44.918;8.614;2023-02-14T04:31:01;2.08;71.07
77056;SHT30;67471;44.918;8.614;2023-02-14T04:34:05;2.10;70.72
77056;SHT30;67471;44.918;8.614;2023-02-14T04:37:09;1.95;70.99
77056;SHT30;67471;44.918;8.614;2023-02-14T04:40:13;2.03;70.42
77056;SHT30;67471;44.918;8.614;2023-02-14T04:43:19;1.94;71.07
77056;SHT30;67471;44.918;8.614;2023-02-14T04:46:23;1.83;71.43
77056;SHT30;67471;44.918;8.614;2023-02-14T04:49:27;1.81;71.56
77056;SHT30;67471;44.918;8.614;2023-02-14T04:52:31;1.86;71.33
77056;SHT30;67471;44.918;8.614;2023-02-14T04:55:34;1.81;71.52
77056;SHT30;67471;44.918;8.614;2023-02-14T04:58:38;1.91;71.31
77056;SHT30;67471;44.918;8.614;2023-02-14T05:01:42;1.95;71.35
77056;SHT30;67471;44.918;8.614;2023-02-14T05:04:45;1.83;71.47
77056;SHT30;67471;44.918;8.614;2023-02-14T05:07:49;1.95;71.15
77056;SHT30;67471;44.918;8.614;2023-02-14T05:10:53;1.79;71.73
77056;SHT30;67471;44.918;8.614;2023-02-14T05:13:57;1.78;71.97
77056;SHT30;67471;44.918;8.614;2023-02-14T05:17:01;1.74;72.26
77056;SHT30;67471;44.918;8.614;2023-02-14T05:20:05;1.81;72.21
77056;SHT30;67471;44.918;8.614;2023-02-14T05:23:09;1.83;72.03
77056;SHT30;67471;44.918;8.614;2023-02-14T05:26:15;1.78;71.94
77056;SHT30;67471;44.918;8.614;2023-02-14T05:29:19;1.79;72.32
77056;SHT30;67471;44.918;8.614;2023-02-14T05:32:23;1.83;72.07
77056;SHT30;67471;44.918;8.614;2023-02-14T05:35:26;1.81;72.06
77056;SHT30;67471;44.918;8.614;2023-02-14T05:38:31;1.71;72.41
77056;SHT30;67471;44.918;8.614;2023-02-14T05:41:35;1.69;72.76
77056;SHT30;67471;44.918;8.614;2023-02-14T05:44:39;1.69;72.41
77056;SHT30;67471;44.918;8.614;2023-02-14T05:47:43;1.79;72.49
77056;SHT30;67471;44.918;8.614;2023-02-14T05:50:47;1.72;72.59
77056;SHT30;67471;44.918;8.614;2023-02-14T05:53:50;1.68;72.67
77056;SHT30;67471;44.918;8.614;2023-02-14T05:56:54;1.79;72.47
77056;SHT30;67471;44.918;8.614;2023-02-14T05:59:58;1.74;72.52
77056;SHT30;67471;44.918;8.614;2023-02-14T06:03:02;1.82;72.27
77056;SHT30;67471;44.918;8.614;2023-02-14T06:06:06;1.92;71.98
77056;SHT30;67471;44.918;8.614;2023-02-14T06:09:09;1.89;71.96
77056;SHT30;67471;44.918;8.614;2023-02-14T06:12:13;1.88;72.26
77056;SHT30;67471;44.918;8.614;2023-02-14T06:15:17;2.01;71.94
77056;SHT30;67471;44.918;8.614;2023-02-14T06:18:21;2.05;71.92
77056;SHT30;67471;44.918;8.614;2023-02-14T06:21:25;1.88;72.06
77056;SHT30;67471;44.918;8.614;2023-02-14T06:24:29;1.98;71.87
77056;SHT30;67471;44.918;8.614;2023-02-14T06:27:33;2.05;72.00
77056;SHT30;67471;44.918;8.614;2023-02-14T06:30:37;2.03;71.95
77056;SHT30;67471;44.918;8.614;2023-02-14T06:33:41;2.20;71.53
77056;SHT30;67471;44.918;8.614;2023-02-14T06:36:45;2.26;71.13
77056;SHT30;67471;44.918;8.614;2023-02-14T06:39:48;2.16;71.07
77056;SHT30;67471;44.918;8.614;2023-02-14T06:42:52;2.12;71.19
77056;SHT30;67471;44.918;8.614;2023-02-14T06:45:56;2.25;70.51
77056;SHT30;67471;44.918;8.614;2023-02-14T06:49:00;2.16;70.93
77056;SHT30;67471;44.918;8.614;2023-02-14T06:52:04;2.16;70.93
77056;SHT30;67471;44.918;8.614;2023-02-14T06:55:08;2.19;70.89
77056;SHT30;67471;44.918;8.614;2023-02-14T06:58:14;2.33;70.41
77056;SHT30;67471;44.918;8.614;2023-02-14T07:01:17;2.30;70.32
77056;SHT30;67471;44.918;8.614;2023-02-14T07:04:21;2.39;70.01
77056;SHT30;67471;44.918;8.614;2023-02-14T07:07:25;2.48;69.64
77056;SHT30;67471;44.918;8.614;2023-02-14T07:10:29;2.58;69.43
77056;SHT30;67471;44.918;8.614;2023-02-14T07:13:32;3.44;67.29
77056;SHT30;67471;44.918;8.614;2023-02-14T07:16:36;5.38;60.60
77056;SHT30;67471;44.918;8.614;2023-02-14T07:19:40;6.74;55.99
77056;SHT30;67471;44.918;8.614;2023-02-14T07:22:44;7.69;53.19
77056;SHT30;67471;44.918;8.614;2023-02-14T07:25:48;8.45;50.97
77056;SHT30;67471;44.918;8.614;2023-02-14T07:28:51;9.66;47.83
77056;SHT30;67471;44.918;8.614;2023-02-14T07:31:55;10.83;44.69
77056;SHT30;67471;44.918;8.614;2023-02-14T07:34:59;11.78;42.79
77056;SHT30;67471;44.918;8.614;2023-02-14T07:38:03;12.56;41.04
77056;SHT30;67471;44.918;8.614;2023-02-14T07:41:07;13.34;39.32
77056;SHT30;67471;44.918;8.614;2023-02-14T07:44:11;13.75;38.57
77056;SHT30;67471;44.918;8.614;2023-02-14T07:47:15;14.44;37.59
77056;SHT30;67471;44.918;8.614;2023-02-14T07:50:19;14.91;36.60
77056;SHT30;67471;44.918;8.614;2023-02-14T07:53:24;15.73;35.19
77056;SHT30;67471;44.918;8.614;2023-02-14T07:56:28;16.22;34.28
77056;SHT30;67471;44.918;8.614;2023-02-14T07:59:32;16.53;33.89
77056;SHT30;67471;44.918;8.614;2023-02-14T08:02:35;16.99;33.42
77056;SHT30;67471;44.918;8.614;2023-02-14T08:05:40;17.17;32.90
77056;SHT30;67471;44.918;8.614;2023-02-14T08:08:44;17.31;33.02
77056;SHT30;67471;44.918;8.614;2023-02-14T08:11:47;17.38;32.86
77056;SHT30;67471;44.918;8.614;2023-02-14T08:15:10;17.40;32.97
77056;SHT30;67471;44.918;8.614;2023-02-14T08:18:38;17.93;32.19
77056;SHT30;67471;44.918;8.614;2023-02-14T08:21:41;18.16;31.71
77056;SHT30;67471;44.918;8.614;2023-02-14T08:24:45;18.22;31.99
77056;SHT30;67471;44.918;8.614;2023-02-14T08:27:50;18.60;31.38
77056;SHT30;67471;44.918;8.614;2023-02-14T08:30:54;18.36;31.71
77056;SHT30;67471;44.918;8.614;2023-02-14T08:33:57;18.34;31.76
77056;SHT30;67471;44.918;8.614;2023-02-14T08:37:01;18.22;31.79
77056;SHT30;67471;44.918;8.614;2023-02-14T08:40:06;18.44;31.67
77056;SHT30;67471;44.918;8.614;2023-02-14T08:43:11;18.60;31.53
77056;SHT30;67471;44.918;8.614;2023-02-14T08:46:15;18.63;31.59
77056;SHT30;67471;44.918;8.614;2023-02-14T08:49:21;18.78;31.33
77056;SHT30;67471;44.918;8.614;2023-02-14T08:52:25;18.64;31.91
77056;SHT30;67471;44.918;8.614;2023-02-14T08:55:29;18.46;32.05
77056;SHT30;67471;44.918;8.614;2023-02-14T08:58:32;18.87;31.58
77056;SHT30;67471;44.918;8.614;2023-02-14T09:01:38;19.08;31.37
77056;SHT30;67471;44.918;8.614;2023-02-14T09:04:42;18.80;31.81
77056;SHT30;67471;44.918;8.614;2023-02-14T09:07:45;18.85;31.98
77056;SHT30;67471;44.918;8.614;2023-02-14T09:10:49;18.61;32.24
77056;SHT30;67471;44.918;8.614;2023-02-14T09:13:55;18.26;32.92
77056;SHT30;67471;44.918;8.614;2023-02-14T09:16:59;18.33;32.85
77056;SHT30;67471;44.918;8.614;2023-02-14T09:20:09;18.40;32.84
77056;SHT30;67471;44.918;8.614;2023-02-14T09:23:13;18.14;33.33
77056;SHT30;67471;44.918;8.614;2023-02-14T09:26:17;17.65;34.11
77056;SHT30;67471;44.918;8.614;2023-02-14T09:29:21;17.06;35.17
77056;SHT30;67471;44.918;8.614;2023-02-14T09:32:25;17.16;35.04
77056;SHT30;67471;44.918;8.614;2023-02-14T09:35:30;17.19;35.10
77056;SHT30;67471;44.918;8.614;2023-02-14T09:38:34;16.76;35.83
77056;SHT30;67471;44.918;8.614;2023-02-14T09:42:07;16.79;36.10
77056;SHT30;67471;44.918;8.614;2023-02-14T09:45:24;17.11;35.67
77056;SHT30;67471;44.918;8.614;2023-02-14T09:48:32;16.93;35.89
77056;SHT30;67471;44.918;8.614;2023-02-14T09:51:45;16.47;36.75
77056;SHT30;67471;44.918;8.614;2023-02-14T09:54:53;16.24;37.50
77056;SHT30;67471;44.918;8.614;2023-02-14T10:01:43;15.25;39.38
77056;SHT30;67471;44.918;8.614;2023-02-14T10:05:06;15.08;39.90
77056;SHT30;67471;44.918;8.614;2023-02-14T10:11:35;14.31;41.07
77056;SHT30;67471;44.918;8.614;2023-02-14T10:14:39;14.33;41.70
77056;SHT30;67471;44.918;8.614;2023-02-14T10:20:56;14.77;40.77
77056;SHT30;67471;44.918;8.614;2023-02-14T10:24:13;14.80;40.77
77056;SHT30;67471;44.918;8.614;2023-02-14T10:27:37;14.70;41.20
77056;SHT30;67471;44.918;8.614;2023-02-14T10:31:03;14.85;39.79
77056;SHT30;67471;44.918;8.614;2023-02-14T10:34:25;14.91;39.26
77056;SHT30;67471;44.918;8.614;2023-02-14T10:37:49;14.80;40.32
77056;SHT30;67471;44.918;8.614;2023-02-14T10:54:27;15.35;39.92
77056;SHT30;67471;44.918;8.614;2023-02-14T10:57:37;15.54;39.33
77056;SHT30;67471;44.918;8.614;2023-02-14T11:00:51;15.66;39.15
77056;SHT30;67471;44.918;8.614;2023-02-14T11:03:59;15.77;38.80
77056;SHT30;67471;44.918;8.614;2023-02-14T11:07:18;15.96;38.23
77056;SHT30;67471;44.918;8.614;2023-02-14T11:10:25;16.07;38.53
77056;SHT30;67471;44.918;8.614;2023-02-14T11:13:35;16.11;37.18
77056;SHT30;67471;44.918;8.614;2023-02-14T11:16:39;16.12;37.85
77056;SHT30;67471;44.918;8.614;2023-02-14T11:19:55;16.32;36.91
77056;SHT30;67471;44.918;8.614;2023-02-14T11:22:59;16.53;36.20
77056;SHT30;67471;44.918;8.614;2023-02-14T11:26:08;16.60;35.91
77056;SHT30;67471;44.918;8.614;2023-02-14T11:29:19;16.77;35.60
77056;SHT30;67471;44.918;8.614;2023-02-14T11:32:27;16.51;36.57
77056;SHT30;67471;44.918;8.614;2023-02-14T11:35:32;16.66;36.63
77056;SHT30;67471;44.918;8.614;2023-02-14T11:38:40;16.62;36.82
77056;SHT30;67471;44.918;8.614;2023-02-14T11:41:55;16.81;36.44
77056;SHT30;67471;44.918;8.614;2023-02-14T11:44:59;16.60;37.22
77056;SHT30;67471;44.918;8.614;2023-02-14T11:48:24;16.59;37.24
77056;SHT30;67471;44.918;8.614;2023-02-14T11:51:30;16.39;37.13
77056;SHT30;67471;44.918;8.614;2023-02-14T11:54:39;16.35;37.46
77056;SHT30;67471;44.918;8.614;2023-02-14T11:57:43;16.32;37.46
77056;SHT30;67471;44.918;8.614;2023-02-14T12:00:52;16.58;37.03
77056;SHT30;67471;44.918;8.614;2023-02-14T12:03:57;16.59;36.68
77056;SHT30;67471;44.918;8.614;2023-02-14T12:07:17;16.52;36.72
77056;SHT30;67471;44.918;8.614;2023-02-14T12:10:32;16.66;36.81
77056;SHT30;67471;44.918;8.614;2023-02-14T12:13:37;16.56;37.10
77056;SHT30;67471;44.918;8.614;2023-02-14T12:17:05;16.41;37.64
77056;SHT30;67471;44.918;8.614;2023-02-14T12:20:25;16.87;37.02
77056;SHT30;67471;44.918;8.614;2023-02-14T12:30:21;17.00;37.16
77056;SHT30;67471;44.918;8.614;2023-02-14T12:33:25;17.19;36.70
77056;SHT30;67471;44.918;8.614;2023-02-14T12:50:12;16.94;35.67
77056;SHT30;67471;44.918;8.614;2023-02-14T13:00:44;16.68;35.59
77056;SHT30;67471;44.918;8.614;2023-02-14T13:07:28;16.80;36.53
77056;SHT30;67471;44.918;8.614;2023-02-14T13:11:00;16.99;35.80
77056;SHT30;67471;44.918;8.614;2023-02-14T13:17:43;17.07;34.97
77056;SHT30;67471;44.918;8.614;2023-02-14T13:20:51;17.10;34.34
77056;SHT30;67471;44.918;8.614;2023-02-14T13:24:13;17.10;34.65
77056;SHT30;67471;44.918;8.614;2023-02-14T13:27:26;17.14;34.78
77056;SHT30;67471;44.918;8.614;2023-02-14T13:30:33;17.10;34.85
77056;SHT30;67471;44.918;8.614;2023-02-14T13:33:41;17.06;34.96
77056;SHT30;67471;44.918;8.614;2023-02-14T13:36:45;17.03;35.07
77056;SHT30;67471;44.918;8.614;2023-02-14T13:39:54;17.13;35.28
77056;SHT30;67471;44.918;8.614;2023-02-14T13:42:59;17.13;35.13
77056;SHT30;67471;44.918;8.614;2023-02-14T13:46:04;17.00;34.95
77056;SHT30;67471;44.918;8.614;2023-02-14T13:52:45;17.40;34.79
77056;SHT30;67471;44.918;8.614;2023-02-14T13:55:49;17.51;34.65
77056;SHT30;67471;44.918;8.614;2023-02-14T13:59:00;17.47;34.32
77056;SHT30;67471;44.918;8.614;2023-02-14T14:08:35;17.42;34.23
77056;SHT30;67471;44.918;8.614;2023-02-14T14:27:44;17.52;33.07
77056;SHT30;67471;44.918;8.614;2023-02-14T14:30:49;17.51;33.15
77056;SHT30;67471;44.918;8.614;2023-02-14T14:33:58;17.45;33.45
77056;SHT30;67471;44.918;8.614;2023-02-14T14:37:06;17.32;33.01
77056;SHT30;67471;44.918;8.614;2023-02-14T14:40:37;17.37;32.96
77056;SHT30;67471;44.918;8.614;2023-02-14T14:43:40;17.48;32.24
77056;SHT30;67471;44.918;8.614;2023-02-14T14:46:44;17.45;32.47
77056;SHT30;67471;44.918;8.614;2023-02-14T14:49:51;17.30;33.22
77056;SHT30;67471;44.918;8.614;2023-02-14T14:53:03;17.34;33.24
77056;SHT30;67471;44.918;8.614;2023-02-14T14:56:12;17.31;33.45
77056;SHT30;67471;44.918;8.614;2023-02-14T14:59:32;17.32;33.69
77056;SHT30;67471;44.918;8.614;2023-02-14T15:02:39;17.35;33.09
77056;SHT30;67471;44.918;8.614;2023-02-14T15:05:46;17.23;33.25
77056;SHT30;67471;44.918;8.614;2023-02-14T15:08:50;17.00;33.97
77056;SHT30;67471;44.918;8.614;2023-02-14T15:11:55;17.21;34.18
77056;SHT30;67471;44.918;8.614;2023-02-14T15:15:18;17.17;34.33
77056;SHT30;67471;44.918;8.614;2023-02-14T15:18:22;17.10;34.48
77056;SHT30;67471;44.918;8.614;2023-02-14T15:21:26;17.16;34.62
77056;SHT30;67471;44.918;8.614;2023-02-14T15:24:31;17.03;34.71
77056;SHT30;67471;44.918;8.614;2023-02-14T15:27:39;17.00;34.85
77056;SHT30;67471;44.918;8.614;2023-02-14T15:30:43;17.02;34.74
77056;SHT30;67471;44.918;8.614;2023-02-14T15:33:57;16.90;35.11
77056;SHT30;67471;44.918;8.614;2023-02-14T15:37:03;16.91;35.17
77056;SHT30;67471;44.918;8.614;2023-02-14T15:40:16;16.80;35.23
77056;SHT30;67471;44.918;8.614;2023-02-14T15:43:30;16.73;35.42
77056;SHT30;67471;44.918;8.614;2023-02-14T15:46:38;16.63;35.53
77056;SHT30;67471;44.918;8.614;2023-02-14T15:49:43;16.65;35.82
77056;SHT30;67471;44.918;8.614;2023-02-14T15:52:51;16.55;35.74
77056;SHT30;67471;44.918;8.614;2023-02-14T15:56:02;16.45;36.07
77056;SHT30;67471;44.918;8.614;2023-02-14T15:59:22;16.45;36.30
77056;SHT30;67471;44.918;8.614;2023-02-14T16:02:33;16.35;36.05
77056;SHT30;67471;44.918;8.614;2023-02-14T16:05:45;16.22;36.54
77056;SHT30;67471;44.918;8.614;2023-02-14T16:08:53;16.11;36.76
77056;SHT30;67471;44.918;8.614;2023-02-14T16:11:57;15.94;37.08
77056;SHT30;67471;44.918;8.614;2023-02-14T16:15:17;15.81;37.39
77056;SHT30;67471;44.918;8.614;2023-02-14T16:18:43;15.67;37.62
77056;SHT30;67471;44.918;8.614;2023-02-14T16:21:55;15.53;38.03
77056;SHT30;67471;44.918;8.614;2023-02-14T16:25:00;15.39;38.21
77056;SHT30;67471;44.918;8.614;2023-02-14T16:28:03;15.39;38.76
77056;SHT30;67471;44.918;8.614;2023-02-14T16:31:14;15.33;39.30
77056;SHT30;67471;44.918;8.614;2023-02-14T16:34:18;15.06;39.35
77056;SHT30;67471;44.918;8.614;2023-02-14T16:37:27;14.82;39.64
77056;SHT30;67471;44.918;8.614;2023-02-14T16:40:33;14.78;39.74
77056;SHT30;67471;44.918;8.614;2023-02-14T16:43:37;14.60;40.08
77056;SHT30;67471;44.918;8.614;2023-02-14T16:46:41;14.57;40.27
77056;SHT30;67471;44.918;8.614;2023-02-14T16:49:45;14.65;40.46
77056;SHT30;67471;44.918;8.614;2023-02-14T16:52:50;14.58;40.84
77056;SHT30;67471;44.918;8.614;2023-02-14T16:55:55;14.47;41.19
77056;SHT30;67471;44.918;8.614;2023-02-14T16:58:59;14.31;41.79
77056;SHT30;67471;44.918;8.614;2023-02-14T17:02:03;14.24;42.12
77056;SHT30;67471;44.918;8.614;2023-02-14T17:05:08;14.16;42.61
77056;SHT30;67471;44.918;8.614;2023-02-14T17:08:12;14.09;42.89
77056;SHT30;67471;44.918;8.614;2023-02-14T17:11:18;13.99;43.30
77056;SHT30;67471;44.918;8.614;2023-02-14T17:14:26;13.90;43.64
77056;SHT30;67471;44.918;8.614;2023-02-14T17:17:32;13.68;44.22
77056;SHT30;67471;44.918;8.614;2023-02-14T17:20:36;13.66;44.29
77056;SHT30;67471;44.918;8.614;2023-02-14T17:23:41;13.62;44.46
77056;SHT30;67471;44.918;8.614;2023-02-14T17:26:45;13.73;44.34
77056;SHT30;67471;44.918;8.614;2023-02-14T17:29:48;13.54;44.86
77056;SHT30;67471;44.918;8.614;2023-02-14T17:32:54;13.32;45.27
77056;SHT30;67471;44.918;8.614;2023-02-14T17:36:03;13.34;45.27
77056;SHT30;67471;44.918;8.614;2023-02-14T17:39:07;13.37;45.37
77056;SHT30;67471;44.918;8.614;2023-02-14T17:42:11;13.31;45.43
77056;SHT30;67471;44.918;8.614;2023-02-14T17:45:15;13.30;45.55
77056;SHT30;67471;44.918;8.614;2023-02-14T17:48:19;13.31;45.52
77056;SHT30;67471;44.918;8.614;2023-02-14T17:51:23;13.27;45.55
77056;SHT30;67471;44.918;8.614;2023-02-14T17:54:27;13.08;46.04
77056;SHT30;67471;44.918;8.614;2023-02-14T17:57:31;13.01;46.42
77056;SHT30;67471;44.918;8.614;2023-02-14T18:00:35;12.97;47.01
77056;SHT30;67471;44.918;8.614;2023-02-14T18:03:39;12.83;47.85
77056;SHT30;67471;44.918;8.614;2023-02-14T18:06:43;12.73;48.06
77056;SHT30;67471;44.918;8.614;2023-02-14T18:09:46;12.56;48.59
77056;SHT30;67471;44.918;8.614;2023-02-14T18:12:50;12.39;48.81
77056;SHT30;67471;44.918;8.614;2023-02-14T18:15:54;12.38;49.08
77056;SHT30;67471;44.918;8.614;2023-02-14T18:19:02;12.31;49.33
77056;SHT30;67471;44.918;8.614;2023-02-14T18:22:06;12.15;49.26
77056;SHT30;67471;44.918;8.614;2023-02-14T18:25:10;12.01;49.38
77056;SHT30;67471;44.918;8.614;2023-02-14T18:28:14;11.84;49.71
77056;SHT30;67471;44.918;8.614;2023-02-14T18:31:18;11.71;49.47
77056;SHT30;67471;44.918;8.614;2023-02-14T18:34:21;11.51;49.75
77056;SHT30;67471;44.918;8.614;2023-02-14T18:37:25;11.39;49.91
77056;SHT30;67471;44.918;8.614;2023-02-14T18:40:28;11.23;50.30
77056;SHT30;67471;44.918;8.614;2023-02-14T18:43:33;11.18;50.34
77056;SHT30;67471;44.918;8.614;2023-02-14T18:46:37;11.08;50.46
77056;SHT30;67471;44.918;8.614;2023-02-14T18:49:41;11.02;50.63
77056;SHT30;67471;44.918;8.614;2023-02-14T18:52:45;10.92;50.77
77056;SHT30;67471;44.918;8.614;2023-02-14T18:55:49;10.89;50.75
77056;SHT30;67471;44.918;8.614;2023-02-14T18:58:58;10.86;50.84
77056;SHT30;67471;44.918;8.614;2023-02-14T19:02:02;10.79;51.10
77056;SHT30;67471;44.918;8.614;2023-02-14T19:05:07;10.71;51.20
77056;SHT30;67471;44.918;8.614;2023-02-14T19:08:11;10.68;51.44
77056;SHT30;67471;44.918;8.614;2023-02-14T19:11:18;10.64;51.66
77056;SHT30;67471;44.918;8.614;2023-02-14T19:14:22;10.60;51.81
77056;SHT30;67471;44.918;8.614;2023-02-14T19:17:27;10.52;52.13
77056;SHT30;67471;44.918;8.614;2023-02-14T19:20:30;10.51;51.97
77056;SHT30;67471;44.918;8.614;2023-02-14T19:23:34;10.37;52.34
77056;SHT30;67471;44.918;8.614;2023-02-14T19:26:38;10.37;52.31
77056;SHT30;67471;44.918;8.614;2023-02-14T19:29:42;10.50;51.95
77056;SHT30;67471;44.918;8.614;2023-02-14T19:32:46;10.45;51.93
77056;SHT30;67471;44.918;8.614;2023-02-14T19:36:00;10.31;52.62
77056;SHT30;67471;44.918;8.614;2023-02-14T19:39:05;10.18;53.10
77056;SHT30;67471;44.918;8.614;2023-02-14T19:42:08;10.13;53.68
77056;SHT30;67471;44.918;8.614;2023-02-14T19:45:12;10.21;53.84
77056;SHT30;67471;44.918;8.614;2023-02-14T19:48:16;10.33;53.62
77056;SHT30;67471;44.918;8.614;2023-02-14T19:51:27;10.33;54.13
77056;SHT30;67471;44.918;8.614;2023-02-14T19:54:31;10.27;54.58
77056;SHT30;67471;44.918;8.614;2023-02-14T19:57:35;10.13;54.96
77056;SHT30;67471;44.918;8.614;2023-02-14T20:00:39;10.30;54.57
77056;SHT30;67471;44.918;8.614;2023-02-14T20:03:43;10.33;54.36
77056;SHT30;67471;44.918;8.614;2023-02-14T20:06:47;10.31;54.87
77056;SHT30;67471;44.918;8.614;2023-02-14T20:09:51;10.36;54.62
77056;SHT30;67471;44.918;8.614;2023-02-14T20:12:55;10.13;55.23
77056;SHT30;67471;44.918;8.614;2023-02-14T20:15:59;9.97;55.61
77056;SHT30;67471;44.918;8.614;2023-02-14T20:19:07;9.93;55.61
77056;SHT30;67471;44.918;8.614;2023-02-14T20:22:14;9.92;55.68
77056;SHT30;67471;44.918;8.614;2023-02-14T20:25:18;9.87;55.81
77056;SHT30;67471;44.918;8.614;2023-02-14T20:28:22;9.85;55.92
77056;SHT30;67471;44.918;8.614;2023-02-14T20:31:26;9.89;55.80
77056;SHT30;67471;44.918;8.614;2023-02-14T20:34:29;9.82;55.88
77056;SHT30;67471;44.918;8.614;2023-02-14T20:37:33;9.85;55.97
77056;SHT30;67471;44.918;8.614;2023-02-14T20:40:38;9.59;56.88
77056;SHT30;67471;44.918;8.614;2023-02-14T20:43:42;9.69;56.68
77056;SHT30;67471;44.918;8.614;2023-02-14T20:46:48;9.71;56.72
77056;SHT30;67471;44.918;8.614;2023-02-14T20:49:51;9.68;56.47
77056;SHT30;67471;44.918;8.614;2023-02-14T20:52:55;9.55;56.70
77056;SHT30;67471;44.918;8.614;2023-02-14T20:55:59;9.56;56.81
77056;SHT30;67471;44.918;8.614;2023-02-14T20:59:03;9.51;56.99
77056;SHT30;67471;44.918;8.614;2023-02-14T21:02:08;9.45;57.15
77056;SHT30;67471;44.918;8.614;2023-02-14T21:05:12;9.48;56.91
77056;SHT30;67471;44.918;8.614;2023-02-14T21:08:20;9.21;57.71
77056;SHT30;67471;44.918;8.614;2023-02-14T21:11:25;9.18;57.59
77056;SHT30;67471;44.918;8.614;2023-02-14T21:14:29;9.04;58.19
77056;SHT30;67471;44.918;8.614;2023-02-14T21:17:33;9.12;58.03
77056;SHT30;67471;44.918;8.614;2023-02-14T21:20:37;8.87;58.55
77056;SHT30;67471;44.918;8.614;2023-02-14T21:23:41;8.88;58.45
77056;SHT30;67471;44.918;8.614;2023-02-14T21:26:45;8.70;58.69
77056;SHT30;67471;44.918;8.614;2023-02-14T21:29:49;8.67;58.40
77056;SHT30;67471;44.918;8.614;2023-02-14T21:32:53;8.36;58.97
77056;SHT30;67471;44.918;8.614;2023-02-14T21:36:13;8.36;58.77
77056;SHT30;67471;44.918;8.614;2023-02-14T21:39:16;8.15;58.99
77056;SHT30;67471;44.918;8.614;2023-02-14T21:42:23;8.03;59.21
77056;SHT30;67471;44.918;8.614;2023-02-14T21:45:28;7.98;59.26
77056;SHT30;67471;44.918;8.614;2023-02-14T21:48:50;7.88;59.50
77056;SHT30;67471;44.918;8.614;2023-02-14T21:52:13;7.80;59.51
77056;SHT30;67471;44.918;8.614;2023-02-14T21:55:16;7.84;59.37
77056;SHT30;67471;44.918;8.614;2023-02-14T21:58:20;7.74;59.66